Time;durP1;ratioP1;P1;durP2;ratioP2;P2;SDS_P1;SDS_P2;PMS_P1;PMS_P2;Temp;Humidity;BMP_temperature;BMP_pressure;BME280_temperature;BME280_humidity;BME280_pressure;Samples;Min_cycle;Max_cycle;Signal;HPM_P1;HPM_P2
2023/04/03 00:01:03;;;;;;;1.15;1.15;;;11.10;92.90;;;;;;5046378;28;20227;-74
2023/04/03 00:03:30;;;;;;;1.20;1.20;;;11.10;92.80;;;;;;5044397;28;20257;-74
2023/04/03 00:05:57;;;;;;;1.00;1.00;;;11.00;92.90;;;;;;5045119;28;20231;-75
2023/04/03 00:08:24;;;;;;;1.08;1.08;;;11.00;93.00;;;;;;5046013;28;20201;-74
2023/04/03 00:10:52;;;;;;;1.10;1.10;;;11.00;93.10;;;;;;5044211;28;20219;-74
2023/04/03 00:13:19;;;;;;;1.35;1.35;;;11.00;92.90;;;;;;5043846;28;20211;-74
2023/04/03 00:15:46;;;;;;;1.10;1.10;;;11.00;92.90;;;;;;5041324;28;20198;-74
2023/04/03 00:18:14;;;;;;;1.30;1.30;;;11.10;93.00;;;;;;5044303;28;20199;-74
2023/04/03 00:20:41;;;;;;;1.20;1.20;;;11.10;93.10;;;;;;5051520;28;20227;-74
2023/04/03 00:23:08;;;;;;;1.05;1.05;;;11.00;93.10;;;;;;5050677;28;20227;-75
2023/04/03 00:25:36;;;;;;;1.50;1.40;;;10.90;93.30;;;;;;5045121;28;20241;-75
2023/04/03 00:28:04;;;;;;;1.13;1.13;;;10.90;93.30;;;;;;5043416;28;20195;-73
2023/04/03 00:30:31;;;;;;;1.00;1.00;;;10.90;93.50;;;;;;5044744;28;20326;-75
2023/04/03 00:32:58;;;;;;;1.20;1.20;;;10.90;93.70;;;;;;5038149;28;20283;-75
2023/04/03 00:35:27;;;;;;;1.30;1.30;;;10.80;93.70;;;;;;5042167;28;20286;-73
2023/04/03 00:37:55;;;;;;;0.90;0.90;;;10.80;93.70;;;;;;5042599;28;21029;-73
2023/04/03 00:40:24;;;;;;;1.35;1.35;;;10.80;93.80;;;;;;5043571;28;20745;-73
2023/04/03 00:42:56;;;;;;;1.20;1.20;;;10.70;93.90;;;;;;5044355;28;20202;-73
2023/04/03 00:45:31;;;;;;;1.10;1.10;;;10.70;94.20;;;;;;5042886;28;20737;-73
2023/04/03 00:48:00;;;;;;;1.02;1.02;;;10.60;94.20;;;;;;5043818;28;20234;-73
2023/04/03 00:50:30;;;;;;;1.30;1.30;;;10.60;94.40;;;;;;5040783;28;20277;-72
2023/04/03 00:52:58;;;;;;;1.10;1.10;;;10.60;94.60;;;;;;5044257;28;20215;-72
2023/04/03 00:55:26;;;;;;;1.38;1.30;;;10.50;94.60;;;;;;5043131;28;20203;-73
2023/04/03 00:57:53;;;;;;;1.10;1.10;;;10.50;94.80;;;;;;5040914;28;20199;-73
2023/04/03 01:00:23;;;;;;;1.00;1.00;;;10.50;94.90;;;;;;5040747;28;20259;-72
2023/04/03 01:02:50;;;;;;;1.35;1.35;;;10.50;95.00;;;;;;5044290;28;20217;-75
2023/04/03 01:05:18;;;;;;;1.33;1.33;;;10.40;95.00;;;;;;5045002;28;20227;-72
2023/04/03 01:07:47;;;;;;;1.20;1.20;;;10.40;95.00;;;;;;5037830;28;20275;-75
2023/04/03 01:10:19;;;;;;;1.20;1.20;;;10.40;95.00;;;;;;5045693;28;20199;-75
2023/04/03 01:12:48;;;;;;;1.25;1.25;;;10.40;95.00;;;;;;5046784;28;20207;-74
2023/04/03 01:15:17;;;;;;;1.17;1.17;;;10.40;95.10;;;;;;5048785;28;20238;-73
2023/04/03 01:17:46;;;;;;;1.20;1.20;;;10.40;95.30;;;;;;5049053;28;20661;-73
2023/04/03 01:20:45;;;;;;;1.50;1.50;;;10.40;95.40;;;;;;5059834;28;20218;-74
2023/04/03 01:23:23;;;;;;;1.25;1.25;;;10.30;95.80;;;;;;5039866;28;20190;-73
2023/04/03 01:25:53;;;;;;;1.38;1.38;;;10.20;95.90;;;;;;5040226;28;20261;-73
2023/04/03 01:28:22;;;;;;;1.30;1.30;;;10.20;96.10;;;;;;5040724;28;20779;-73
2023/04/03 01:30:54;;;;;;;1.33;1.33;;;10.10;96.00;;;;;;5042313;28;20250;-72
2023/04/03 01:33:22;;;;;;;1.50;1.50;;;10.10;96.10;;;;;;5038365;28;20259;-73
2023/04/03 01:35:50;;;;;;;1.20;1.20;;;10.10;96.10;;;;;;5039434;28;20235;-75
2023/04/03 01:38:17;;;;;;;1.20;1.20;;;10.10;96.20;;;;;;5042261;28;20264;-73
2023/04/03 01:40:44;;;;;;;1.40;1.40;;;10.10;96.10;;;;;;5041855;28;20909;-73
2023/04/03 01:43:11;;;;;;;1.38;1.38;;;10.10;96.10;;;;;;5041697;28;20198;-73
2023/04/03 01:45:38;;;;;;;1.17;1.17;;;10.10;96.30;;;;;;5037963;28;20826;-73
2023/04/03 01:48:05;;;;;;;1.20;1.20;;;10.00;96.50;;;;;;5039860;28;20597;-73
2023/04/03 01:50:33;;;;;;;1.30;1.30;;;10.00;96.70;;;;;;5037774;28;20235;-73
2023/04/03 01:53:00;;;;;;;1.40;1.40;;;9.90;97.20;;;;;;5044024;28;20664;-73
2023/04/03 01:55:27;;;;;;;1.20;1.20;;;9.80;97.30;;;;;;5043545;28;20203;-73
2023/04/03 01:57:54;;;;;;;1.40;1.40;;;9.70;97.80;;;;;;5041158;28;20250;-73
2023/04/03 02:00:21;;;;;;;1.30;1.30;;;9.60;97.80;;;;;;5041014;28;20695;-72
2023/04/03 02:02:49;;;;;;;1.50;1.50;;;9.60;97.80;;;;;;5042077;28;20211;-73
2023/04/03 02:05:16;;;;;;;1.60;1.50;;;9.60;97.80;;;;;;5043645;28;20206;-74
2023/04/03 02:07:45;;;;;;;1.20;1.20;;;9.60;97.90;;;;;;5039576;28;20420;-73
2023/04/03 02:10:13;;;;;;;1.30;1.30;;;9.60;98.00;;;;;;5038925;28;20191;-73
2023/04/03 02:12:40;;;;;;;1.20;1.20;;;9.50;98.10;;;;;;5038129;28;20216;-73
2023/04/03 02:15:09;;;;;;;1.23;1.23;;;9.50;98.20;;;;;;5042199;28;20202;-74
2023/04/03 02:17:36;;;;;;;1.50;1.50;;;9.40;98.30;;;;;;5042469;28;20217;-74
2023/04/03 02:20:04;;;;;;;1.60;1.60;;;9.40;98.60;;;;;;5053018;28;20955;-73
2023/04/03 02:22:31;;;;;;;1.60;1.60;;;9.30;98.70;;;;;;5044540;28;20244;-73
2023/04/03 02:24:59;;;;;;;1.70;1.60;;;9.30;98.80;;;;;;5041165;28;20656;-72
2023/04/03 02:27:26;;;;;;;1.45;1.45;;;9.30;99.20;;;;;;5037515;28;20265;-72
2023/04/03 02:29:53;;;;;;;1.50;1.50;;;9.30;99.40;;;;;;5037932;28;20936;-74
2023/04/03 02:32:20;;;;;;;1.50;1.50;;;9.20;99.50;;;;;;5042413;28;20280;-73
2023/04/03 02:34:47;;;;;;;1.20;1.20;;;9.10;99.60;;;;;;5042271;28;20229;-72
2023/04/03 02:37:14;;;;;;;1.50;1.50;;;9.10;99.50;;;;;;5038628;28;20194;-72
2023/04/03 02:39:41;;;;;;;1.50;1.40;;;9.10;99.40;;;;;;5036796;28;20276;-72
2023/04/03 02:42:10;;;;;;;1.48;1.48;;;9.10;99.40;;;;;;5038866;28;20250;-73
2023/04/03 02:44:37;;;;;;;1.52;1.52;;;9.20;99.40;;;;;;5036354;28;20207;-73
2023/04/03 02:47:05;;;;;;;1.25;1.25;;;9.20;99.40;;;;;;5038549;28;20226;-73
2023/04/03 02:49:41;;;;;;;1.42;1.42;;;9.20;99.90;;;;;;5041631;28;20211;-73
2023/04/03 02:52:08;;;;;;;1.45;1.45;;;9.20;99.70;;;;;;5047219;28;20224;-72
2023/04/03 02:54:35;;;;;;;1.20;1.20;;;9.20;99.90;;;;;;5043981;28;20292;-75
2023/04/03 02:57:02;;;;;;;1.30;1.30;;;9.10;99.90;;;;;;5045147;28;20192;-73
2023/04/03 02:59:31;;;;;;;0.98;0.98;;;9.00;99.90;;;;;;5046789;28;20203;-72
2023/04/03 03:01:58;;;;;;;1.10;1.10;;;9.10;99.90;;;;;;5044323;28;20309;-74
2023/04/03 03:04:25;;;;;;;1.30;1.30;;;9.10;99.90;;;;;;5043492;28;20208;-75
2023/04/03 03:06:52;;;;;;;1.23;1.23;;;9.10;99.90;;;;;;5045782;28;20222;-74
2023/04/03 03:09:19;;;;;;;1.00;1.00;;;9.10;99.90;;;;;;5043311;28;20229;-72
2023/04/03 03:11:46;;;;;;;1.55;1.45;;;9.10;99.90;;;;;;5043717;28;20210;-73
2023/04/03 03:14:13;;;;;;;1.30;1.20;;;9.10;99.90;;;;;;5043988;28;20230;-72
2023/04/03 03:16:41;;;;;;;1.15;1.15;;;9.00;99.90;;;;;;5047443;28;20207;-75
2023/04/03 03:19:08;;;;;;;1.08;1.08;;;9.00;99.90;;;;;;5057212;28;20990;-73
2023/04/03 03:21:35;;;;;;;1.17;1.17;;;9.00;99.90;;;;;;5045045;28;20735;-72
2023/04/03 03:24:02;;;;;;;1.10;1.10;;;9.00;99.90;;;;;;5043160;28;20261;-73
2023/04/03 03:26:30;;;;;;;1.10;1.10;;;9.00;99.90;;;;;;5043758;28;20207;-73
2023/04/03 03:28:57;;;;;;;1.20;1.20;;;9.10;99.90;;;;;;5044239;28;20209;-73
2023/04/03 03:31:24;;;;;;;1.35;1.35;;;9.10;99.90;;;;;;5044652;28;20219;-72
2023/04/03 03:33:52;;;;;;;1.10;1.10;;;9.00;99.90;;;;;;5040202;28;20218;-73
2023/04/03 03:36:19;;;;;;;1.30;1.30;;;9.10;99.90;;;;;;5042856;28;20203;-72
2023/04/03 03:38:46;;;;;;;1.30;1.30;;;9.10;99.90;;;;;;5044179;28;20262;-74
2023/04/03 03:41:13;;;;;;;1.38;1.38;;;9.10;99.90;;;;;;5041837;28;20266;-73
2023/04/03 03:43:40;;;;;;;1.38;1.38;;;9.10;99.90;;;;;;5044262;28;20210;-72
2023/04/03 03:46:07;;;;;;;1.48;1.48;;;9.10;99.90;;;;;;5041429;28;20727;-70
2023/04/03 03:48:35;;;;;;;1.58;1.58;;;9.00;99.90;;;;;;5042344;28;20242;-72
2023/04/03 03:51:03;;;;;;;1.60;1.60;;;9.00;99.90;;;;;;5041805;28;20215;-72
2023/04/03 03:53:30;;;;;;;1.70;1.70;;;8.90;99.90;;;;;;5046298;28;20198;-73
2023/04/03 03:55:57;;;;;;;1.48;1.48;;;8.80;99.90;;;;;;5042184;28;20208;-73
2023/04/03 03:58:24;;;;;;;1.70;1.60;;;8.70;99.90;;;;;;5045833;28;20733;-72
2023/04/03 04:00:51;;;;;;;1.50;1.50;;;8.70;99.90;;;;;;5043100;28;20285;-72
2023/04/03 04:03:18;;;;;;;1.30;1.30;;;8.60;99.90;;;;;;5047449;28;20195;-73
2023/04/03 04:05:45;;;;;;;1.42;1.42;;;8.70;99.90;;;;;;5046016;28;20223;-73
2023/04/03 04:08:14;;;;;;;1.40;1.40;;;8.60;99.90;;;;;;5046495;28;20226;-74
2023/04/03 04:10:41;;;;;;;1.27;1.27;;;8.70;99.90;;;;;;5041649;28;20229;-73
2023/04/03 04:13:08;;;;;;;1.23;1.23;;;8.70;99.90;;;;;;5043828;28;20230;-73
2023/04/03 04:15:35;;;;;;;1.45;1.45;;;8.70;99.90;;;;;;5049656;28;20199;-73
2023/04/03 04:18:02;;;;;;;1.17;1.17;;;8.70;99.90;;;;;;5052623;28;20204;-73
2023/04/03 04:20:29;;;;;;;1.35;1.35;;;8.70;99.90;;;;;;5044613;28;20247;-73
2023/04/03 04:22:56;;;;;;;1.33;1.33;;;8.70;99.90;;;;;;5041813;28;20619;-73
2023/04/03 04:25:25;;;;;;;1.33;1.33;;;8.70;99.90;;;;;;5044246;28;20206;-73
2023/04/03 04:27:52;;;;;;;1.27;1.27;;;8.70;99.90;;;;;;5039658;28;20255;-73
2023/04/03 04:30:19;;;;;;;1.40;1.40;;;8.70;99.90;;;;;;5040031;28;20268;-73
2023/04/03 04:32:48;;;;;;;1.45;1.45;;;8.80;99.90;;;;;;5043948;28;20408;-73
2023/04/03 04:35:15;;;;;;;1.67;1.58;;;8.70;99.90;;;;;;5042462;28;20199;-72
2023/04/03 04:37:42;;;;;;;1.50;1.50;;;8.70;99.90;;;;;;5043507;28;20215;-72
2023/04/03 04:40:10;;;;;;;2.15;1.50;;;8.70;99.90;;;;;;5039964;28;20203;-73
2023/04/03 04:42:38;;;;;;;1.50;1.50;;;8.60;99.90;;;;;;5041721;28;20219;-73
2023/04/03 04:45:06;;;;;;;1.30;1.30;;;8.60;99.90;;;;;;5043469;28;20253;-74
2023/04/03 04:47:33;;;;;;;1.38;1.38;;;8.50;99.90;;;;;;5045143;28;20276;-73
2023/04/03 04:50:00;;;;;;;1.58;1.58;;;8.50;99.90;;;;;;5040196;28;20207;-74
2023/04/03 04:52:27;;;;;;;1.70;1.60;;;8.50;99.90;;;;;;5046267;28;20195;-73
2023/04/03 04:54:54;;;;;;;1.50;1.50;;;8.50;99.90;;;;;;5045318;28;20230;-74
2023/04/03 04:57:21;;;;;;;1.60;1.60;;;8.50;99.90;;;;;;5044139;28;20659;-74
2023/04/03 04:59:49;;;;;;;1.40;1.40;;;8.50;99.90;;;;;;5047970;28;20200;-74
2023/04/03 05:02:16;;;;;;;1.77;1.67;;;8.50;99.90;;;;;;5043768;28;20230;-73
2023/04/03 05:04:43;;;;;;;1.70;1.70;;;8.60;99.90;;;;;;5044551;28;20252;-71
2023/04/03 05:07:11;;;;;;;1.48;1.48;;;8.60;99.90;;;;;;5039859;28;20542;-75
2023/04/03 05:09:38;;;;;;;1.48;1.48;;;8.50;99.90;;;;;;5043306;28;20256;-74
2023/04/03 05:12:05;;;;;;;1.45;1.45;;;8.60;99.90;;;;;;5038681;28;20254;-74
2023/04/03 05:14:32;;;;;;;1.60;1.60;;;8.60;99.90;;;;;;5046779;28;20199;-75
2023/04/03 05:17:00;;;;;;;1.60;1.50;;;8.60;99.90;;;;;;5050183;28;20195;-74
2023/04/03 05:19:27;;;;;;;1.25;1.25;;;8.60;99.90;;;;;;5042695;28;20276;-75
2023/04/03 05:21:54;;;;;;;1.17;1.17;;;8.60;99.90;;;;;;5043269;28;20226;-74
2023/04/03 05:24:21;;;;;;;1.52;1.52;;;8.60;99.90;;;;;;5041123;28;20210;-74
2023/04/03 05:26:48;;;;;;;1.48;1.48;;;8.60;99.90;;;;;;5039360;28;20207;-74
2023/04/03 05:29:15;;;;;;;1.40;1.40;;;8.70;99.90;;;;;;5043383;28;20665;-74
2023/04/03 05:31:42;;;;;;;1.50;1.50;;;9.00;99.90;;;;;;5043469;28;20259;-74
2023/04/03 05:34:11;;;;;;;1.70;1.60;;;9.50;99.90;;;;;;5041481;28;20261;-73
2023/04/03 05:36:38;;;;;;;1.50;1.50;;;9.90;99.90;;;;;;5041380;28;20317;-72
2023/04/03 05:39:05;;;;;;;1.60;1.60;;;10.20;99.90;;;;;;5037690;28;20203;-75
2023/04/03 05:41:32;;;;;;;2.00;1.90;;;10.40;99.90;;;;;;5036508;28;20291;-72
2023/04/03 05:43:59;;;;;;;1.63;1.60;;;10.70;99.90;;;;;;5042843;28;20340;-74
2023/04/03 05:46:26;;;;;;;1.63;1.52;;;11.30;99.90;;;;;;5042603;28;20265;-73
2023/04/03 05:48:53;;;;;;;1.55;1.48;;;11.70;99.90;;;;;;5041711;28;20286;-73
2023/04/03 05:51:25;;;;;;;1.50;1.50;;;12.00;99.90;;;;;;5039130;28;20280;-73
2023/04/03 05:53:56;;;;;;;1.58;1.58;;;12.20;99.90;;;;;;5037380;28;20892;-75
2023/04/03 05:56:23;;;;;;;1.70;1.60;;;12.30;99.90;;;;;;5038841;28;20210;-75
2023/04/03 05:58:50;;;;;;;1.35;1.33;;;12.40;99.90;;;;;;5041051;28;20226;-76
2023/04/03 06:01:17;;;;;;;1.30;1.30;;;12.60;99.90;;;;;;5036248;28;20854;-75
2023/04/03 06:03:44;;;;;;;1.35;1.30;;;12.90;99.90;;;;;;5036565;28;20203;-75
2023/04/03 06:06:15;;;;;;;1.30;1.20;;;13.20;99.90;;;;;;5039006;28;20867;-75
2023/04/03 06:08:44;;;;;;;1.27;1.17;;;13.40;99.90;;;;;;5036665;28;20203;-76
2023/04/03 06:11:11;;;;;;;1.08;1.08;;;13.60;99.90;;;;;;5036540;28;20344;-76
2023/04/03 06:13:39;;;;;;;1.58;1.50;;;13.80;99.90;;;;;;5050087;28;20179;-74
2023/04/03 06:16:06;;;;;;;1.92;1.30;;;13.80;99.90;;;;;;5039979;28;20195;-74
2023/04/03 06:18:33;;;;;;;1.90;1.40;;;13.90;99.30;;;;;;5033801;28;20786;-74
2023/04/03 06:21:00;;;;;;;1.27;1.27;;;14.00;99.50;;;;;;5035045;28;20352;-74
2023/04/03 06:23:27;;;;;;;1.33;1.33;;;14.10;98.80;;;;;;5039500;28;20241;-73
2023/04/03 06:25:56;;;;;;;1.20;1.20;;;14.10;98.30;;;;;;5036519;28;20226;-75
2023/04/03 06:28:24;;;;;;;1.40;1.40;;;14.30;98.50;;;;;;5037290;28;20310;-75
2023/04/03 06:30:51;;;;;;;1.30;1.20;;;14.50;98.40;;;;;;5037660;28;20820;-76
2023/04/03 06:33:18;;;;;;;1.10;1.10;;;14.60;98.10;;;;;;5034072;28;20250;-77
2023/04/03 06:35:45;;;;;;;0.95;0.95;;;14.60;97.00;;;;;;5038573;28;20234;-74
2023/04/03 06:38:12;;;;;;;2.45;1.08;;;14.60;97.20;;;;;;5033499;28;20238;-73
2023/04/03 06:40:40;;;;;;;1.88;1.10;;;14.60;97.90;;;;;;5034899;28;20305;-74
2023/04/03 06:43:08;;;;;;;1.35;1.27;;;14.60;97.40;;;;;;5038107;28;20214;-74
2023/04/03 06:45:36;;;;;;;1.20;1.10;;;14.70;97.40;;;;;;5037751;28;20230;-75
2023/04/03 06:48:03;;;;;;;1.25;1.25;;;14.90;97.70;;;;;;5036163;28;20210;-74
2023/04/03 06:50:29;;;;;;;4.28;1.10;;;15.00;97.10;;;;;;5041211;28;20223;-75
2023/04/03 06:52:56;;;;;;;1.00;1.00;;;15.20;96.80;;;;;;5039383;28;20198;-75
2023/04/03 06:55:23;;;;;;;1.10;1.10;;;15.30;96.30;;;;;;5037767;28;20264;-74
2023/04/03 06:57:50;;;;;;;1.02;1.00;;;15.50;95.50;;;;;;5036399;28;21685;-76
2023/04/03 07:00:20;;;;;;;1.20;1.10;;;15.60;95.10;;;;;;5036369;28;20248;-74
2023/04/03 07:02:47;;;;;;;1.17;1.17;;;15.70;94.90;;;;;;5039084;28;20208;-75
2023/04/03 07:05:14;;;;;;;1.20;1.20;;;15.80;94.30;;;;;;5039447;28;20286;-74
2023/04/03 07:07:41;;;;;;;1.00;1.00;;;15.90;94.00;;;;;;5036499;28;20199;-74
2023/04/03 07:10:09;;;;;;;0.98;0.98;;;16.20;94.00;;;;;;5035612;28;20215;-72
2023/04/03 07:12:37;;;;;;;1.00;1.00;;;16.30;93.00;;;;;;5053090;28;20302;-74
2023/04/03 07:15:05;;;;;;;1.00;1.00;;;16.30;91.80;;;;;;5035900;28;20277;-73
2023/04/03 07:17:33;;;;;;;1.95;1.20;;;16.20;91.70;;;;;;5036703;28;20195;-74
2023/04/03 07:20:00;;;;;;;0.93;0.93;;;16.30;91.70;;;;;;5037591;28;20353;-74
2023/04/03 07:22:27;;;;;;;0.90;0.90;;;16.40;91.20;;;;;;5039586;28;20321;-74
2023/04/03 07:24:54;;;;;;;1.20;1.17;;;16.20;90.60;;;;;;5037146;28;20284;-73
2023/04/03 07:27:21;;;;;;;1.30;1.20;;;16.30;90.40;;;;;;5036454;28;20200;-75
2023/04/03 07:29:49;;;;;;;1.67;0.85;;;16.30;88.90;;;;;;5041008;28;20280;-74
2023/04/03 07:32:17;;;;;;;1.40;1.25;;;16.30;90.50;;;;;;5039163;28;20288;-76
2023/04/03 07:34:45;;;;;;;1.00;0.95;;;16.50;90.60;;;;;;5041714;28;20200;-76
2023/04/03 07:37:12;;;;;;;1.10;1.10;;;16.60;90.00;;;;;;5042670;28;20812;-72
2023/04/03 07:39:39;;;;;;;1.00;1.00;;;16.60;88.30;;;;;;5039238;28;20285;-74
2023/04/03 07:42:07;;;;;;;0.80;0.80;;;16.90;86.90;;;;;;5041656;28;20227;-73
2023/04/03 07:44:35;;;;;;;2.33;0.98;;;17.20;85.30;;;;;;5039134;28;20210;-74
2023/04/03 07:47:02;;;;;;;0.93;0.93;;;17.40;84.60;;;;;;5041657;28;20211;-74
2023/04/03 07:49:29;;;;;;;1.15;1.00;;;17.60;79.50;;;;;;5038422;28;20202;-75
2023/04/03 07:51:58;;;;;;;1.00;1.00;;;17.70;77.50;;;;;;5040844;28;20253;-74
2023/04/03 07:54:25;;;;;;;1.10;1.10;;;17.70;76.10;;;;;;5043174;28;20303;-74
2023/04/03 07:56:52;;;;;;;1.38;1.30;;;17.80;74.40;;;;;;5042708;28;20274;-75
2023/04/03 07:59:19;;;;;;;0.95;0.95;;;17.90;74.30;;;;;;5038423;28;20196;-74
2023/04/03 08:01:46;;;;;;;1.48;0.88;;;18.00;73.20;;;;;;5043157;28;20578;-77
2023/04/03 08:04:13;;;;;;;0.90;0.90;;;18.00;71.90;;;;;;5040268;28;20196;-76
2023/04/03 08:06:40;;;;;;;0.60;0.60;;;18.20;71.10;;;;;;5040672;28;20256;-76
2023/04/03 08:09:09;;;;;;;1.10;1.10;;;18.40;71.00;;;;;;5043585;28;20210;-77
2023/04/03 08:11:37;;;;;;;0.90;0.90;;;18.60;70.60;;;;;;5053473;28;20241;-76
2023/04/03 08:14:04;;;;;;;0.80;0.80;;;18.60;68.70;;;;;;5041878;28;20222;-76
2023/04/03 08:16:30;;;;;;;0.70;0.70;;;18.50;66.00;;;;;;5042679;28;20211;-76
2023/04/03 08:18:57;;;;;;;5.82;1.63;;;18.50;66.20;;;;;;5041302;28;20204;-74
2023/04/03 08:21:25;;;;;;;0.75;0.73;;;18.60;66.90;;;;;;5039744;28;20325;-73
2023/04/03 08:23:52;;;;;;;0.70;0.70;;;18.50;65.20;;;;;;5041594;28;20226;-76
2023/04/03 08:26:22;;;;;;;0.70;0.70;;;18.60;64.30;;;;;;5039662;28;20203;-76
2023/04/03 08:28:49;;;;;;;0.65;0.63;;;18.70;62.90;;;;;;5044885;28;20206;-74
2023/04/03 08:31:18;;;;;;;1.17;0.70;;;18.80;63.30;;;;;;5038796;28;20283;-74
2023/04/03 08:33:46;;;;;;;0.60;0.60;;;18.90;63.00;;;;;;5042497;28;20968;-76
2023/04/03 08:36:20;;;;;;;0.70;0.70;;;18.80;61.00;;;;;;5040213;28;20249;-74
2023/04/03 08:38:47;;;;;;;0.90;0.90;;;18.60;62.00;;;;;;5042668;28;20194;-76
2023/04/03 08:41:20;;;;;;;0.75;0.70;;;18.60;61.10;;;;;;5042510;28;20261;-74
2023/04/03 08:43:59;;;;;;;1.38;0.60;;;18.70;61.10;;;;;;5043731;28;20246;-74
2023/04/03 08:46:41;;;;;;;0.70;0.70;;;18.80;58.80;;;;;;5040179;28;20207;-74
2023/04/03 08:49:15;;;;;;;0.70;0.70;;;18.90;58.10;;;;;;5042771;28;20257;-75
2023/04/03 08:51:49;;;;;;;0.60;0.60;;;18.80;56.50;;;;;;5042058;28;20261;-76
2023/04/03 08:54:28;;;;;;;0.70;0.70;;;18.90;57.90;;;;;;5038792;28;20203;-74
2023/04/03 08:56:56;;;;;;;0.60;0.60;;;18.80;58.00;;;;;;5042081;28;20281;-77
2023/04/03 08:59:29;;;;;;;0.50;0.50;;;18.90;56.70;;;;;;5040452;28;20194;-77
2023/04/03 09:01:58;;;;;;;0.55;0.55;;;18.90;57.20;;;;;;5047584;28;20516;-77
2023/04/03 09:04:28;;;;;;;0.60;0.60;;;19.00;56.80;;;;;;5046101;28;20202;-75
2023/04/03 09:06:59;;;;;;;0.90;0.90;;;19.40;57.00;;;;;;5041638;28;20697;-78
2023/04/03 09:09:33;;;;;;;0.85;0.73;;;19.60;57.00;;;;;;5047882;28;20214;-77
2023/04/03 09:12:11;;;;;;;1.45;0.60;;;19.60;56.40;;;;;;5045544;28;20316;-76
2023/04/03 09:14:42;;;;;;;0.63;0.63;;;19.70;56.00;;;;;;5039268;28;20199;-76
2023/04/03 09:17:20;;;;;;;0.80;0.80;;;19.70;55.90;;;;;;5035561;28;20211;-76
2023/04/03 09:19:55;;;;;;;0.68;0.68;;;20.00;55.90;;;;;;5033721;28;20612;-76
2023/04/03 09:22:25;;;;;;;0.60;0.60;;;20.00;54.50;;;;;;5036217;28;20292;-76
2023/04/03 09:24:59;;;;;;;0.50;0.50;;;19.90;54.70;;;;;;5030843;28;20278;-76
2023/04/03 09:27:26;;;;;;;1.42;1.33;;;19.90;54.20;;;;;;5035519;28;20779;-76
2023/04/03 09:29:57;;;;;;;0.60;0.60;;;20.20;54.20;;;;;;5034713;28;20296;-76
2023/04/03 09:32:29;;;;;;;1.10;0.63;;;20.20;51.70;;;;;;5037876;28;20704;-76
2023/04/03 09:34:59;;;;;;;0.55;0.55;;;20.20;52.90;;;;;;5036702;28;20329;-75
2023/04/03 09:37:39;;;;;;;0.85;0.70;;;20.30;53.20;;;;;;5039975;28;20576;-75
2023/04/03 09:40:28;;;;;;;0.60;0.60;;;20.30;53.10;;;;;;5034971;28;20206;-76
2023/04/03 09:42:57;;;;;;;0.60;0.60;;;20.40;52.60;;;;;;5033313;28;20249;-76
2023/04/03 09:45:27;;;;;;;0.77;0.77;;;20.50;52.80;;;;;;5036319;28;20199;-76
2023/04/03 09:48:07;;;;;;;0.70;0.70;;;20.50;51.40;;;;;;5036822;28;20215;-77
2023/04/03 09:50:35;;;;;;;0.57;0.57;;;20.50;52.00;;;;;;5039846;28;20884;-75
2023/04/03 09:53:07;;;;;;;0.55;0.50;;;20.60;51.90;;;;;;5040561;28;20198;-76
2023/04/03 09:55:43;;;;;;;0.73;0.73;;;20.70;51.80;;;;;;5031760;28;20202;-75
2023/04/03 09:58:26;;;;;;;0.60;0.60;;;20.50;51.60;;;;;;5036237;28;20206;-76
2023/04/03 10:00:58;;;;;;;0.75;0.70;;;20.40;51.30;;;;;;5036235;28;20280;-76
2023/04/03 10:03:29;;;;;;;0.70;0.70;;;20.60;51.60;;;;;;5036916;28;20264;-75
2023/04/03 10:05:57;;;;;;;0.75;0.70;;;20.60;51.70;;;;;;5043621;28;20542;-77
2023/04/03 10:08:28;;;;;;;1.02;0.70;;;20.60;50.80;;;;;;5048247;28;20717;-76
2023/04/03 10:11:11;;;;;;;3.35;0.80;;;20.80;51.40;;;;;;5043694;28;20368;-77
2023/04/03 10:13:51;;;;;;;0.60;0.60;;;20.80;49.10;;;;;;5040252;28;20233;-76
2023/04/03 10:16:22;;;;;;;0.63;0.63;;;20.80;49.40;;;;;;5036610;28;20206;-76
2023/04/03 10:19:03;;;;;;;0.55;0.55;;;20.70;47.40;;;;;;5041289;28;20203;-76
2023/04/03 10:21:42;;;;;;;0.57;0.57;;;20.50;45.40;;;;;;5040706;28;20310;-76
2023/04/03 10:24:14;;;;;;;0.60;0.60;;;20.10;44.60;;;;;;5038099;28;20356;-76
2023/04/03 10:26:49;;;;;;;0.60;0.60;;;20.20;47.10;;;;;;5037885;28;20202;-76
2023/04/03 10:29:26;;;;;;;0.70;0.70;;;20.40;49.00;;;;;;5038798;28;20237;-77
2023/04/03 10:32:01;;;;;;;0.70;0.70;;;20.20;47.90;;;;;;5042327;28;20311;-76
2023/04/03 10:34:32;;;;;;;0.57;0.57;;;20.30;47.30;;;;;;5034435;28;20201;-76
2023/04/03 10:37:07;;;;;;;0.57;0.57;;;20.20;46.40;;;;;;5038638;28;20290;-74
2023/04/03 10:39:44;;;;;;;0.52;0.52;;;20.30;48.20;;;;;;5035586;28;20211;-77
2023/04/03 10:42:19;;;;;;;0.60;0.60;;;20.60;46.90;;;;;;5041889;28;20257;-76
2023/04/03 10:45:02;;;;;;;0.60;0.60;;;20.30;44.40;;;;;;5040722;28;20222;-75
2023/04/03 10:47:37;;;;;;;0.70;0.70;;;20.10;45.80;;;;;;5037703;28;20310;-74
2023/04/03 10:50:32;;;;;;;0.60;0.60;;;19.80;45.00;;;;;;5036627;28;20225;-73
2023/04/03 10:53:05;;;;;;;0.63;0.63;;;19.70;45.70;;;;;;5038246;28;20285;-74
2023/04/03 10:55:37;;;;;;;0.70;0.70;;;19.90;47.30;;;;;;5041554;28;20343;-74
2023/04/03 10:58:06;;;;;;;0.80;0.80;;;20.20;48.20;;;;;;5035418;28;20202;-77
2023/04/03 11:00:39;;;;;;;0.80;0.80;;;20.50;47.20;;;;;;5036710;28;20232;-77
2023/04/03 11:03:14;;;;;;;1.85;0.50;;;20.60;46.40;;;;;;5036727;28;20309;-76
2023/04/03 11:05:44;;;;;;;0.50;0.50;;;20.40;43.10;;;;;;5048672;28;20210;-76
2023/04/03 11:08:26;;;;;;;0.50;0.50;;;20.00;43.60;;;;;;5036598;28;20199;-76
2023/04/03 11:10:56;;;;;;;0.68;0.68;;;19.90;44.70;;;;;;5041853;28;20225;-76
2023/04/03 11:13:28;;;;;;;0.70;0.70;;;19.80;42.60;;;;;;5038436;28;20272;-76
2023/04/03 11:15:57;;;;;;;0.50;0.50;;;19.50;44.90;;;;;;5036519;28;20256;-75
2023/04/03 11:18:33;;;;;;;0.60;0.60;;;19.40;43.20;;;;;;5036940;28;20204;-76
2023/04/03 11:21:04;;;;;;;0.57;0.57;;;19.50;42.90;;;;;;5039547;28;20218;-76
2023/04/03 11:23:35;;;;;;;0.50;0.50;;;19.50;43.80;;;;;;5040371;28;20301;-76
2023/04/03 11:26:10;;;;;;;0.60;0.60;;;19.80;43.60;;;;;;5040497;28;20178;-75
2023/04/03 11:28:38;;;;;;;2.92;0.70;;;20.00;43.40;;;;;;5032794;28;20250;-75
2023/04/03 11:31:16;;;;;;;1.40;0.57;;;20.00;42.80;;;;;;5039570;28;20652;-76
2023/04/03 11:33:52;;;;;;;0.45;0.40;;;19.70;42.30;;;;;;5043225;28;20290;-73
2023/04/03 11:36:24;;;;;;;0.70;0.70;;;19.80;43.30;;;;;;5039237;28;20289;-74
2023/04/03 11:38:55;;;;;;;0.60;0.60;;;20.10;44.00;;;;;;5042785;28;20633;-75
2023/04/03 11:41:28;;;;;;;0.88;0.88;;;20.40;44.10;;;;;;5037727;28;20224;-73
2023/04/03 11:44:00;;;;;;;0.75;0.60;;;20.50;42.70;;;;;;5040903;28;20300;-76
2023/04/03 11:46:52;;;;;;;0.50;0.50;;;20.60;41.90;;;;;;5042189;28;20228;-77
2023/04/03 11:50:00;;;;;;;0.60;0.60;;;20.60;42.50;;;;;;5031674;28;20204;-76
2023/04/03 11:52:56;;;;;;;0.60;0.60;;;19.90;39.80;;;;;;5040703;28;20288;-74
2023/04/03 11:55:44;;;;;;;1.52;0.63;;;19.40;41.00;;;;;;5045927;28;20282;-74
2023/04/03 11:58:16;;;;;;;3.15;0.60;;;19.20;41.10;;;;;;5040023;28;20717;-76
2023/04/03 12:01:00;;;;;;;0.63;0.60;;;19.40;42.50;;;;;;5041298;28;20356;-75
2023/04/03 12:04:13;;;;;;;0.60;0.60;;;19.40;41.00;;;;;;5053185;28;20228;-76
2023/04/03 12:07:13;;;;;;;0.68;0.68;;;19.40;41.20;;;;;;5039581;28;20233;-76
2023/04/03 12:10:18;;;;;;;0.60;0.60;;;19.40;42.30;;;;;;5039943;28;20238;-76
2023/04/03 12:12:58;;;;;;;0.60;0.60;;;19.50;39.20;;;;;;5040374;28;20233;-75
2023/04/03 12:15:49;;;;;;;0.57;0.57;;;19.30;40.90;;;;;;5039961;28;20306;-74
2023/04/03 12:18:53;;;;;;;0.70;0.70;;;19.20;42.20;;;;;;5041017;28;20677;-76
2023/04/03 12:21:22;;;;;;;0.50;0.50;;;19.40;43.90;;;;;;5044241;28;20317;-74
2023/04/03 12:24:02;;;;;;;0.57;0.57;;;19.70;42.80;;;;;;5042245;28;20254;-74
2023/04/03 12:26:35;;;;;;;0.57;0.57;;;20.00;44.80;;;;;;5039167;28;20207;-76
2023/04/03 12:29:11;;;;;;;0.60;0.60;;;20.30;43.60;;;;;;5040321;28;20207;-75
2023/04/03 12:31:43;;;;;;;2.03;0.70;;;20.30;41.90;;;;;;5039351;28;20222;-75
2023/04/03 12:34:27;;;;;;;0.50;0.50;;;20.20;44.30;;;;;;5035939;28;20307;-76
2023/04/03 12:37:04;;;;;;;0.60;0.60;;;20.20;43.10;;;;;;5043921;28;20807;-75
2023/04/03 12:39:49;;;;;;;0.60;0.60;;;20.20;40.50;;;;;;5040800;28;20968;-75
2023/04/03 12:42:40;;;;;;;0.60;0.60;;;20.20;41.90;;;;;;5042912;28;20210;-75
2023/04/03 12:45:17;;;;;;;4.80;0.68;;;20.10;41.50;;;;;;5040725;28;20275;-75
2023/04/03 12:47:45;;;;;;;0.70;0.70;;;20.20;41.20;;;;;;5035028;28;20199;-75
2023/04/03 12:50:23;;;;;;;0.60;0.60;;;20.10;42.70;;;;;;5041103;28;20257;-75
2023/04/03 12:52:55;;;;;;;0.70;0.70;;;20.30;43.80;;;;;;5042281;28;20207;-75
2023/04/03 12:55:23;;;;;;;0.93;0.68;;;20.50;44.10;;;;;;5036519;28;20471;-75
2023/04/03 12:57:52;;;;;;;2.72;0.60;;;20.40;43.60;;;;;;5048081;28;20257;-75
2023/04/03 13:00:33;;;;;;;0.70;0.70;;;20.40;43.60;;;;;;5058283;28;20238;-76
2023/04/03 13:03:00;;;;;;;0.93;0.50;;;20.30;43.00;;;;;;5047407;28;20221;-75
2023/04/03 13:05:28;;;;;;;2.92;0.63;;;20.10;42.00;;;;;;5040196;28;20246;-74
2023/04/03 13:08:01;;;;;;;0.60;0.60;;;20.10;44.00;;;;;;5042263;28;20203;-75